createdAt,value
2022-12-09T00:00:41.765Z,95193.03
2022-12-09T00:02:13.665Z,95212.63
2022-12-09T00:03:45.609Z,95210.31
2022-12-09T00:05:17.635Z,95206.47
2022-12-09T00:06:49.450Z,95210.47
2022-12-09T00:08:21.327Z,95201.66
2022-12-09T00:09:53.069Z,95207.53
2022-12-09T00:11:25.230Z,95206.91
2022-12-09T00:12:57.183Z,95201.22
2022-12-09T00:14:30.450Z,95206.59
2022-12-09T00:16:05.935Z,95205.53
2022-12-09T00:17:37.701Z,95212.16
2022-12-09T00:19:09.447Z,95209.84
2022-12-09T00:20:41.083Z,95203.84
2022-12-09T00:22:12.807Z,95196.72
2022-12-09T00:23:44.562Z,95193.63
2022-12-09T00:25:16.199Z,95193.47
2022-12-09T00:26:47.856Z,95196.09
2022-12-09T00:28:19.510Z,95193.00
2022-12-09T00:29:52.667Z,95195.78
2022-12-09T00:31:25.412Z,95191.47
2022-12-09T00:32:57.260Z,95195.31
2022-12-09T00:34:28.951Z,95198.09
2022-12-09T00:36:04.821Z,95201.97
2022-12-09T00:37:36.448Z,95194.41
2022-12-09T00:39:08.174Z,95189.00
2022-12-09T00:40:40.019Z,95189.47
2022-12-09T00:42:11.839Z,95181.88
2022-12-09T00:43:43.775Z,95177.25
2022-12-09T00:45:16.952Z,95181.09
2022-12-09T00:46:48.883Z,95187.13
2022-12-09T00:48:20.839Z,95183.41
2022-12-09T00:49:52.446Z,95188.22
2022-12-09T00:51:24.731Z,95187.31
2022-12-09T00:52:56.429Z,95186.34
2022-12-09T00:54:28.242Z,95186.34
2022-12-09T00:55:59.898Z,95190.06
2022-12-09T00:57:31.665Z,95193.16
2022-12-09T00:59:03.315Z,95189.44
2022-12-09T01:00:36.350Z,95189.00
2022-12-09T01:02:08.300Z,95197.78
2022-12-09T01:03:40.154Z,95193.47
2022-12-09T01:05:12.065Z,95193.31
2022-12-09T01:06:43.805Z,95194.41
2022-12-09T01:08:15.723Z,95199.50
2022-12-09T01:09:47.433Z,95203.66
2022-12-09T01:11:21.021Z,95205.50
2022-12-09T01:12:52.928Z,95195.63
2022-12-09T01:14:24.850Z,95208.13
2022-12-09T01:15:58.197Z,95207.34
2022-12-09T01:17:30.380Z,95199.16
2022-12-09T01:19:03.108Z,95213.84
2022-12-09T01:20:34.852Z,95205.34
2022-12-09T01:22:06.504Z,95203.50
2022-12-09T01:23:38.271Z,95206.59
2022-12-09T01:25:10.061Z,95200.72
2022-12-09T01:26:41.753Z,95200.28
2022-12-09T01:28:13.683Z,95190.69
2022-12-09T01:29:45.524Z,95195.63
2022-12-09T01:31:19.460Z,95189.94
2022-12-09T01:32:51.215Z,95202.44
2022-12-09T01:34:23.291Z,95185.47
2022-12-09T01:35:54.903Z,95187.66
2022-12-09T01:37:26.597Z,95185.47
2022-12-09T01:38:58.982Z,95183.16
2022-12-09T01:40:30.644Z,95177.00
2022-12-09T01:42:02.564Z,95181.47
2022-12-09T01:43:34.500Z,95165.25
2022-12-09T01:45:40.310Z,95170.97
2022-12-09T01:47:21.260Z,95169.53
2022-12-09T01:48:52.985Z,95169.88
2022-12-09T01:50:24.848Z,95167.84
2022-12-09T01:52:00.959Z,95165.84
2022-12-09T01:53:35.493Z,95163.66
2022-12-09T01:55:08.030Z,95160.00
2022-12-09T01:56:39.737Z,95163.09
2022-12-09T01:58:11.402Z,95159.22
2022-12-09T01:59:43.107Z,95156.59
2022-12-09T02:01:15.030Z,95155.06
2022-12-09T02:02:48.862Z,95154.47
2022-12-09T02:04:20.687Z,95157.09
2022-12-09T02:05:52.789Z,95150.91
2022-12-09T02:07:24.567Z,95154.59
2022-12-09T02:08:56.302Z,95139.47
2022-12-09T02:10:28.109Z,95134.84
2022-12-09T02:12:05.924Z,95131.94
2022-12-09T02:13:41.023Z,95134.84
2022-12-09T02:15:14.669Z,95132.41
2022-12-09T02:16:50.596Z,95122.03
2022-12-09T02:18:25.746Z,95128.09
2022-12-09T02:20:01.676Z,95120.81
2022-12-09T02:21:35.435Z,95121.59
2022-12-09T02:23:08.794Z,95122.66
2022-12-09T02:24:41.511Z,95121.72
2022-12-09T02:26:27.406Z,95118.50
2022-12-09T02:28:24.710Z,95117.06
2022-12-09T02:30:04.077Z,95116.13
2022-12-09T02:31:50.181Z,95111.22
2022-12-09T02:33:26.589Z,95108.88
2022-12-09T02:35:00.885Z,95107.03
2022-12-09T02:36:35.731Z,95109.34
2022-12-09T02:38:09.424Z,95107.78
2022-12-09T02:39:43.251Z,95108.59
2022-12-09T02:41:16.600Z,95101.16
2022-12-09T02:42:48.279Z,95099.13
2022-12-09T02:44:20.603Z,95101.34
2022-12-09T02:45:52.327Z,95106.59
2022-12-09T02:47:25.397Z,95105.69
2022-12-09T02:48:57.905Z,95098.44
2022-12-09T02:50:32.715Z,95101.84
2022-12-09T02:52:04.464Z,95086.06
2022-12-09T02:53:36.460Z,95091.00
2022-12-09T02:55:09.513Z,95091.78
2022-12-09T02:56:42.900Z,95085.00
2022-12-09T02:58:14.618Z,95078.50
2022-12-09T02:59:46.860Z,95078.66
2022-12-09T03:01:22.404Z,95073.25
2022-12-09T03:02:55.466Z,95065.84
2022-12-09T03:04:27.948Z,95052.88
2022-12-09T03:06:03.518Z,95052.59
2022-12-09T03:07:39.091Z,95061.69
2022-12-09T03:09:12.201Z,95058.84
2022-12-09T03:10:47.760Z,95061.19
2022-12-09T03:12:20.028Z,95058.22
2022-12-09T03:13:53.340Z,95062.44
2022-12-09T03:15:25.843Z,95061.06
2022-12-09T03:17:01.156Z,95041.28
2022-12-09T03:18:33.473Z,95049.19
2022-12-09T03:20:06.879Z,95052.44
2022-12-09T03:21:42.143Z,95045.06
2022-12-09T03:23:15.606Z,95041.63
2022-12-09T03:24:52.129Z,95039.16
2022-12-09T03:26:24.959Z,95038.69
2022-12-09T03:27:57.833Z,95040.38
2022-12-09T03:29:29.789Z,95049.03
2022-12-09T03:31:03.219Z,95043.19
2022-12-09T03:32:35.634Z,95044.13
2022-12-09T03:34:07.674Z,95046.75
2022-12-09T03:35:41.412Z,95049.97
2022-12-09T03:37:15.087Z,95043.31
2022-12-09T03:38:47.010Z,95036.53
2022-12-09T03:40:22.577Z,95034.38
2022-12-09T03:41:56.282Z,95039.78
2022-12-09T03:43:29.847Z,95025.13
2022-12-09T03:45:02.977Z,95024.22
2022-12-09T03:46:35.251Z,95017.72
2022-12-09T03:48:07.487Z,95012.44
2022-12-09T03:49:39.649Z,95023.22
2022-12-09T03:51:14.348Z,95011.50
2022-12-09T03:52:49.515Z,95009.50
2022-12-09T03:54:23.038Z,95013.69
2022-12-09T03:55:58.312Z,95003.81
2022-12-09T03:57:30.339Z,95004.28
2022-12-09T03:59:02.224Z,94994.84
2022-12-09T04:00:35.434Z,95003.50
2022-12-09T04:02:07.759Z,95001.31
2022-12-09T04:03:39.766Z,95004.09
2022-12-09T04:05:12.303Z,94993.47
2022-12-09T04:06:44.269Z,94990.84
2022-12-09T04:08:17.489Z,94993.81
2022-12-09T04:09:49.368Z,94987.84
2022-12-09T04:11:21.499Z,94984.41
2022-12-09T04:12:53.332Z,94982.88
2022-12-09T04:14:25.003Z,94977.31
2022-12-09T04:15:56.821Z,94974.81
2022-12-09T04:17:28.885Z,94976.84
2022-12-09T04:19:00.686Z,94966.63
2022-12-09T04:20:32.745Z,94970.03
2022-12-09T04:22:04.778Z,94969.56
2022-12-09T04:23:42.504Z,94964.31
2022-12-09T04:25:15.101Z,94962.91
2022-12-09T04:26:46.827Z,94967.97
2022-12-09T04:28:18.880Z,94961.06
2022-12-09T04:29:50.702Z,94970.00
2022-12-09T04:31:22.872Z,94966.91
2022-12-09T04:32:54.994Z,94962.72
2022-12-09T04:34:27.029Z,94960.13
2022-12-09T04:36:04.386Z,94961.34
2022-12-09T04:37:37.511Z,94949.78
2022-12-09T04:39:10.681Z,94949.31
2022-12-09T04:40:42.350Z,94945.50
2022-12-09T04:42:14.067Z,94947.31
2022-12-09T04:43:45.793Z,94932.78
2022-12-09T04:45:17.817Z,94935.03
2022-12-09T04:46:49.925Z,94940.53
2022-12-09T04:48:21.837Z,94933.41
2022-12-09T04:49:53.543Z,94927.03
2022-12-09T04:51:25.301Z,94927.56
2022-12-09T04:52:57.268Z,94928.50
2022-12-09T04:54:30.390Z,94926.78
2022-12-09T04:56:02.480Z,94931.91
2022-12-09T04:57:34.161Z,94927.09
2022-12-09T04:59:06.272Z,94922.63
2022-12-09T05:00:38.293Z,94920.81
2022-12-09T05:02:10.088Z,94930.19
2022-12-09T05:03:42.258Z,94925.88
2022-12-09T05:05:14.917Z,94927.28
2022-12-09T05:06:47.201Z,94926.63
2022-12-09T05:08:19.542Z,94927.53
2022-12-09T05:09:53.091Z,94931.25
2022-12-09T05:11:25.203Z,94919.97
2022-12-09T05:12:57.284Z,94921.28
2022-12-09T05:14:29.161Z,94918.53
2022-12-09T05:16:01.347Z,94924.16
2022-12-09T05:17:33.244Z,94920.13
2022-12-09T05:19:05.532Z,94915.19
2022-12-09T05:20:41.397Z,94914.75
2022-12-09T05:22:16.033Z,94917.38
2022-12-09T05:23:47.941Z,94912.91
2022-12-09T05:25:21.545Z,94913.06
2022-12-09T05:26:53.240Z,94913.78
2022-12-09T05:28:25.717Z,94911.22
2022-12-09T05:29:57.687Z,94924.16
2022-12-09T05:31:29.780Z,94918.00
2022-12-09T05:33:02.013Z,94920.16
2022-12-09T05:34:33.907Z,94908.91
2022-12-09T05:36:10.472Z,94913.25
2022-12-09T05:37:42.342Z,94920.19
2022-12-09T05:39:14.607Z,94905.19
2022-12-09T05:40:47.887Z,94911.88
2022-12-09T05:42:19.556Z,94909.50
2022-12-09T05:43:51.814Z,94905.50
2022-12-09T05:45:23.969Z,94908.91
2022-12-09T05:46:55.766Z,94913.06
2022-12-09T05:48:27.919Z,94903.34
2022-12-09T05:50:04.485Z,94910.13
2022-12-09T05:51:39.719Z,94898.56
2022-12-09T05:53:11.695Z,94905.03
2022-12-09T05:54:43.793Z,94907.63
2022-12-09T05:56:17.282Z,94903.72
2022-12-09T05:57:49.306Z,94901.38
2022-12-09T05:59:21.102Z,94902.84
2022-12-09T06:00:56.581Z,94903.41
2022-12-09T06:02:28.717Z,94904.41
2022-12-09T06:04:00.800Z,94908.59
2022-12-09T06:05:33.454Z,94915.06
2022-12-09T06:07:05.429Z,94910.88
2022-12-09T06:08:37.847Z,94914.31
2022-12-09T06:10:10.678Z,94918.44
2022-12-09T06:11:44.474Z,94912.56
2022-12-09T06:13:16.455Z,94912.69
2022-12-09T06:14:50.463Z,94914.91
2022-12-09T06:16:22.566Z,94916.28
2022-12-09T06:17:54.418Z,94915.50
2022-12-09T06:19:26.784Z,94917.81
2022-12-09T06:20:59.035Z,94909.63
2022-12-09T06:22:33.339Z,94918.84
2022-12-09T06:24:05.582Z,94914.41
2022-12-09T06:25:37.590Z,94914.59
2022-12-09T06:27:11.085Z,94906.53
2022-12-09T06:28:42.898Z,94905.19
2022-12-09T06:30:14.986Z,94904.25
2022-12-09T06:31:46.888Z,94908.41
2022-12-09T06:33:52.485Z,94908.16
2022-12-09T06:35:11.630Z,94911.78
2022-12-09T06:36:44.127Z,94909.66
2022-12-09T06:38:15.840Z,94909.81
2022-12-09T06:39:48.033Z,94908.03
2022-12-09T06:41:19.975Z,94896.69
2022-12-09T06:42:53.719Z,94901.44
2022-12-09T06:44:25.737Z,94899.00
2022-12-09T06:45:57.778Z,94897.88
2022-12-09T06:47:29.748Z,94898.28
2022-12-09T06:49:01.788Z,94889.00
2022-12-09T06:50:33.693Z,94891.50
2022-12-09T06:52:05.702Z,94885.69
2022-12-09T06:53:37.459Z,94887.03
2022-12-09T06:55:11.030Z,94889.78
2022-12-09T06:56:43.121Z,94889.13
2022-12-09T06:58:16.263Z,94888.34
2022-12-09T06:59:48.173Z,94890.53
2022-12-09T07:01:20.897Z,94894.13
2022-12-09T07:02:53.500Z,94901.69
2022-12-09T07:04:25.870Z,94897.78
2022-12-09T07:05:57.983Z,94899.06
2022-12-09T07:07:30.485Z,94896.81
2022-12-09T07:09:03.955Z,94896.63
2022-12-09T07:10:36.151Z,94892.59
2022-12-09T07:12:08.002Z,94893.38
2022-12-09T07:13:41.207Z,94890.28
2022-12-09T07:15:13.844Z,94895.53
2022-12-09T07:16:46.145Z,94886.72
2022-12-09T07:18:18.297Z,94891.97
2022-12-09T07:19:50.572Z,94886.63
2022-12-09T07:21:23.356Z,94887.28
2022-12-09T07:22:56.174Z,94886.81
2022-12-09T07:24:27.977Z,94885.13
2022-12-09T07:26:02.348Z,94887.44
2022-12-09T07:27:34.430Z,94893.38
2022-12-09T07:29:08.003Z,94880.03
2022-12-09T07:30:40.257Z,94885.69
2022-12-09T07:32:12.378Z,94884.28
2022-12-09T07:33:44.563Z,94881.91
2022-12-09T07:35:16.940Z,94890.59
2022-12-09T07:36:48.871Z,94887.53
2022-12-09T07:38:20.808Z,94883.25
2022-12-09T07:39:52.656Z,94893.00
2022-12-09T07:41:24.581Z,94881.56
2022-12-09T07:42:59.778Z,94882.91
2022-12-09T07:44:33.299Z,94887.09
2022-12-09T07:46:06.072Z,94890.88
2022-12-09T07:47:38.405Z,94889.03
2022-12-09T07:49:10.974Z,94888.97
2022-12-09T07:50:43.420Z,94886.00
2022-12-09T07:52:15.208Z,94887.16
2022-12-09T07:53:47.263Z,94890.69
2022-12-09T07:55:19.709Z,94885.00
2022-12-09T07:56:51.373Z,94884.81
2022-12-09T07:58:23.357Z,94877.09
2022-12-09T07:59:56.893Z,94873.31
2022-12-09T08:01:29.517Z,94875.19
2022-12-09T08:03:01.674Z,94878.91
2022-12-09T08:04:35.298Z,94872.25
2022-12-09T08:06:07.605Z,94862.88
2022-12-09T08:07:44.269Z,94864.75
2022-12-09T08:09:16.825Z,94863.91
2022-12-09T08:10:49.552Z,94860.13
2022-12-09T08:12:21.933Z,94862.81
2022-12-09T08:13:53.944Z,94862.13
2022-12-09T08:15:27.311Z,94865.19
2022-12-09T08:16:59.463Z,94871.22
2022-12-09T08:18:31.850Z,94860.94
2022-12-09T08:20:05.253Z,94865.22
2022-12-09T08:21:37.694Z,94860.63
2022-12-09T08:23:09.743Z,94864.28
2022-12-09T08:24:41.807Z,94861.81
2022-12-09T08:26:14.535Z,94864.31
2022-12-09T08:27:46.523Z,94864.19
2022-12-09T08:29:19.241Z,94862.28
2022-12-09T08:30:53.031Z,94865.50
2022-12-09T08:32:25.049Z,94862.50
2022-12-09T08:33:57.810Z,94852.56
2022-12-09T08:35:29.995Z,94861.06
2022-12-09T08:37:02.431Z,94860.59
2022-12-09T08:38:35.154Z,94850.84
2022-12-09T08:40:08.294Z,94848.03
2022-12-09T08:41:41.147Z,94854.31
2022-12-09T08:43:13.352Z,94845.59
2022-12-09T08:44:45.342Z,94845.72
2022-12-09T08:46:18.805Z,94852.25
2022-12-09T08:47:50.872Z,94841.91
2022-12-09T08:49:25.868Z,94841.25
2022-12-09T08:51:17.859Z,94842.34
2022-12-09T08:52:49.847Z,94855.22
2022-12-09T08:54:21.579Z,94847.66
2022-12-09T08:55:53.474Z,94837.28
2022-12-09T08:57:25.654Z,94855.22
2022-12-09T08:58:57.410Z,94852.34
2022-12-09T09:00:29.095Z,94856.50
2022-12-09T09:02:02.258Z,94855.34
2022-12-09T09:03:34.601Z,94857.28
2022-12-09T09:05:07.380Z,94844.59
2022-12-09T09:06:40.553Z,94851.72
2022-12-09T09:08:12.603Z,94852.41
2022-12-09T09:09:47.132Z,94862.91
2022-12-09T09:11:21.602Z,94858.50
2022-12-09T09:12:53.480Z,94851.38
2022-12-09T09:14:25.220Z,94857.72
2022-12-09T09:15:57.097Z,94861.94
2022-12-09T09:17:30.668Z,94854.31
2022-12-09T09:19:06.006Z,94851.81
2022-12-09T09:20:38.935Z,94850.59
2022-12-09T09:22:10.698Z,94851.56
2022-12-09T09:23:45.402Z,94846.63
2022-12-09T09:25:17.698Z,94846.19
2022-12-09T09:26:50.162Z,94845.09
2022-12-09T09:28:27.348Z,94847.66
2022-12-09T09:30:00.917Z,94839.66
2022-12-09T09:31:32.732Z,94836.06
2022-12-09T09:33:05.963Z,94838.31
2022-12-09T09:34:37.838Z,94837.53
2022-12-09T09:36:12.916Z,94841.91
2022-12-09T09:37:44.755Z,94843.94
2022-12-09T09:39:16.773Z,94839.31
2022-12-09T09:40:48.712Z,94847.78
2022-12-09T09:42:23.497Z,94848.94
2022-12-09T09:43:55.379Z,94842.16
2022-12-09T09:45:27.483Z,94845.75
2022-12-09T09:46:59.672Z,94842.97
2022-12-09T09:48:34.249Z,94839.31
2022-12-09T09:50:09.480Z,94835.50
2022-12-09T09:51:42.020Z,94842.66
2022-12-09T09:53:17.557Z,94831.50
2022-12-09T09:54:49.410Z,94837.59
2022-12-09T09:56:26.881Z,94830.34
2022-12-09T09:58:02.192Z,94837.66
2022-12-09T09:59:41.991Z,94829.47
2022-12-09T10:01:20.376Z,94827.53
2022-12-09T10:03:10.394Z,94829.56
2022-12-09T10:04:54.039Z,94813.06
2022-12-09T10:06:33.298Z,94816.34
2022-12-09T10:08:23.949Z,94820.72
2022-12-09T10:09:59.945Z,94821.38
2022-12-09T10:11:39.933Z,94815.47
2022-12-09T10:13:19.852Z,94817.16
2022-12-09T10:14:54.423Z,94814.81
2022-12-09T10:16:32.109Z,94811.84
2022-12-09T10:18:09.113Z,94811.84
2022-12-09T10:19:50.365Z,94806.47
2022-12-09T10:21:22.583Z,94807.16
2022-12-09T10:22:56.717Z,94805.84
2022-12-09T10:24:38.720Z,94803.31
2022-12-09T10:26:18.662Z,94798.88
2022-12-09T10:27:53.969Z,94804.78
2022-12-09T10:29:42.132Z,94806.06
2022-12-09T10:31:14.304Z,94805.75
2022-12-09T10:32:46.590Z,94802.78
2022-12-09T10:34:22.006Z,94798.72
2022-12-09T10:35:55.610Z,94796.19
2022-12-09T10:37:32.288Z,94795.69
2022-12-09T10:39:04.694Z,94786.22
2022-12-09T10:40:41.559Z,94782.63
2022-12-09T10:42:35.041Z,94782.31
2022-12-09T10:44:18.198Z,94782.63
2022-12-09T10:47:53.233Z,94781.84
2022-12-09T10:49:28.032Z,94777.38
2022-12-09T10:51:04.108Z,94773.97
2022-12-09T10:52:41.823Z,94781.13
2022-12-09T10:54:20.927Z,94774.50
2022-12-09T10:55:54.782Z,94775.59
2022-12-09T10:57:30.518Z,94768.59
2022-12-09T10:59:18.007Z,94768.41
2022-12-09T11:01:07.277Z,94767.50
2022-12-09T11:02:39.948Z,94764.88
2022-12-09T11:04:12.622Z,94762.47
2022-12-09T11:05:45.036Z,94755.94
2022-12-09T11:07:26.121Z,94761.72
2022-12-09T11:08:59.163Z,94749.47
2022-12-09T11:10:48.272Z,94760.28
2022-12-09T11:12:36.645Z,94753.28
2022-12-09T11:14:24.919Z,94756.13
2022-12-09T11:16:04.094Z,94746.28
2022-12-09T11:17:37.632Z,94746.38
2022-12-09T11:19:13.576Z,94747.16
2022-12-09T11:20:55.153Z,94745.94
2022-12-09T11:22:31.786Z,94750.53
2022-12-09T11:24:04.862Z,94745.06
2022-12-09T11:25:37.643Z,94742.22
2022-12-09T11:27:24.430Z,94733.47
2022-12-09T11:29:01.060Z,94736.09
2022-12-09T11:30:36.468Z,94731.38
2022-12-09T11:32:14.643Z,94735.88
2022-12-09T11:33:49.073Z,94733.69
2022-12-09T11:35:24.085Z,94731.06
2022-12-09T11:36:57.717Z,94737.09
2022-12-09T11:38:36.939Z,94735.38
2022-12-09T11:40:14.900Z,94727.69
2022-12-09T11:42:06.204Z,94726.28
2022-12-09T11:43:41.491Z,94729.22
2022-12-09T11:45:18.343Z,94728.13
2022-12-09T11:46:55.411Z,94720.34
2022-12-09T11:48:35.064Z,94718.25
2022-12-09T11:50:15.488Z,94721.31
2022-12-09T11:52:02.109Z,94717.38
2022-12-09T11:53:39.343Z,94718.03
2022-12-09T11:55:14.846Z,94716.06
2022-12-09T11:56:46.560Z,94710.59
2022-12-09T11:58:20.297Z,94715.19
2022-12-09T11:59:53.512Z,94711.47
2022-12-09T12:01:27.811Z,94723.28
2022-12-09T12:03:01.231Z,94711.38
2022-12-09T12:04:34.421Z,94712.25
2022-12-09T12:06:08.040Z,94715.22
2022-12-09T12:07:41.927Z,94719.59
2022-12-09T12:09:17.981Z,94711.38
2022-12-09T12:10:51.754Z,94705.34
2022-12-09T12:12:25.311Z,94716.31
2022-12-09T12:14:01.402Z,94717.41
2022-12-09T12:15:39.449Z,94716.97
2022-12-09T12:17:16.984Z,94722.97
2022-12-09T12:18:49.976Z,94723.66
2022-12-09T12:20:22.663Z,94721.88
2022-12-09T12:22:16.130Z,94719.25
2022-12-09T12:23:59.313Z,94726.38
2022-12-09T12:25:39.164Z,94727.69
2022-12-09T12:27:19.465Z,94723.31
2022-12-09T12:29:08.927Z,94722.00
2022-12-09T12:30:43.429Z,94721.78
2022-12-09T12:32:41.232Z,94717.19
2022-12-09T12:34:24.496Z,94715.09
2022-12-09T12:35:59.313Z,94718.72
2022-12-09T12:37:39.424Z,94714.78
2022-12-09T12:39:14.125Z,94709.06
2022-12-09T12:40:51.444Z,94705.78
2022-12-09T12:42:30.737Z,94711.72
2022-12-09T12:44:26.593Z,94718.94
2022-12-09T12:46:19.101Z,94724.19
2022-12-09T12:47:55.361Z,94716.84
2022-12-09T12:49:46.536Z,94718.50
2022-12-09T12:51:22.908Z,94719.94
2022-12-09T12:52:57.811Z,94723.00
2022-12-09T12:54:35.953Z,94719.16
2022-12-09T12:56:10.902Z,94721.34
2022-12-09T12:57:44.821Z,94720.56
2022-12-09T12:59:19.946Z,94718.50
2022-12-09T13:00:56.431Z,94716.97
2022-12-09T13:02:35.830Z,94719.81
2022-12-09T13:04:15.239Z,94721.66
2022-12-09T13:05:47.835Z,94720.91
2022-12-09T13:07:32.153Z,94718.94
2022-12-09T13:09:05.604Z,94725.72
2022-12-09T13:10:39.747Z,94728.56
2022-12-09T13:12:14.932Z,94736.03
2022-12-09T13:13:48.583Z,94717.50
2022-12-09T13:15:21.643Z,94720.47
2022-12-09T13:16:53.367Z,94728.56
2022-12-09T13:18:29.275Z,94721.78
2022-12-09T13:20:01.351Z,94737.56
2022-12-09T13:21:32.992Z,94730.75
2022-12-09T13:23:07.021Z,94719.69
2022-12-09T13:24:42.169Z,94727.69
2022-12-09T13:26:23.405Z,94724.84
2022-12-09T13:27:59.695Z,94729.34
2022-12-09T13:29:36.854Z,94734.81
2022-12-09T13:31:09.615Z,94738.22
2022-12-09T13:33:03.159Z,94738.31
2022-12-09T13:34:37.409Z,94737.53
2022-12-09T13:36:13.596Z,94746.53
2022-12-09T13:38:00.683Z,94741.94
2022-12-09T13:39:54.401Z,94751.13
2022-12-09T13:42:03.860Z,94736.13
2022-12-09T13:43:36.915Z,94731.31
2022-12-09T13:45:14.129Z,94728.56
2022-12-09T13:46:46.023Z,94732.19
2022-12-09T13:48:40.522Z,94730.88
2022-12-09T13:50:23.842Z,94733.50
2022-12-09T13:51:55.512Z,94736.47
2022-12-09T13:53:29.281Z,94741.72
2022-12-09T13:55:01.075Z,94745.66
2022-12-09T13:56:33.476Z,94740.94
2022-12-09T13:58:18.293Z,94742.16
2022-12-09T13:59:51.557Z,94740.19
2022-12-09T14:01:23.684Z,94737.22
2022-12-09T14:02:57.685Z,94739.31
2022-12-09T14:04:30.180Z,94745.28
2022-12-09T14:06:04.416Z,94750.88
2022-12-09T14:07:38.118Z,94757.22
2022-12-09T14:09:22.142Z,94755.50
2022-12-09T14:10:54.213Z,94757.59
2022-12-09T14:13:02.698Z,94758.75
2022-12-09T14:14:45.695Z,94748.50
2022-12-09T14:16:33.811Z,94744.63
2022-12-09T14:18:25.241Z,94754.50
2022-12-09T14:20:01.668Z,94753.94
2022-12-09T14:21:33.591Z,94755.25
2022-12-09T14:23:15.480Z,94762.25
2022-12-09T14:24:49.434Z,94753.50
2022-12-09T14:26:33.504Z,94752.50
2022-12-09T14:28:25.063Z,94763.44
2022-12-09T14:29:57.525Z,94771.13
2022-12-09T14:31:50.391Z,94767.63
2022-12-09T14:33:22.192Z,94771.22
2022-12-09T14:35:15.177Z,94773.41
2022-12-09T14:36:54.253Z,94776.25
2022-12-09T14:38:28.575Z,94778.66
2022-12-09T14:40:16.559Z,94772.66
2022-12-09T14:41:50.989Z,94779.97
2022-12-09T14:43:50.201Z,94781.19
2022-12-09T14:45:28.247Z,94785.03
2022-12-09T14:47:13.829Z,94789.41
2022-12-09T14:48:47.507Z,94788.75
2022-12-09T14:50:20.766Z,94795.94
2022-12-09T14:51:52.894Z,94794.84
2022-12-09T14:53:24.575Z,94797.03
2022-12-09T14:54:56.515Z,94793.88
2022-12-09T14:56:28.625Z,94798.38
2022-12-09T14:58:00.719Z,94797.63
2022-12-09T14:59:32.585Z,94799.59
2022-12-09T15:01:05.091Z,94803.09
2022-12-09T15:02:38.249Z,94797.03
2022-12-09T15:04:10.811Z,94799.22
2022-12-09T15:05:53.657Z,94807.34
2022-12-09T15:07:26.166Z,94814.53
2022-12-09T15:08:58.306Z,94810.81
2022-12-09T15:10:32.470Z,94811.28
2022-12-09T15:12:08.343Z,94817.75
2022-12-09T15:13:41.629Z,94815.47
2022-12-09T15:15:15.851Z,94821.56
2022-12-09T15:16:50.544Z,94817.19
2022-12-09T15:18:24.588Z,94820.81
2022-12-09T15:20:00.769Z,94816.53
2022-12-09T15:21:32.903Z,94824.56
2022-12-09T15:23:06.865Z,94825.03
2022-12-09T15:24:49.700Z,94826.94
2022-12-09T15:26:24.656Z,94821.56
2022-12-09T15:27:57.884Z,94824.28
2022-12-09T15:29:30.450Z,94827.69
2022-12-09T15:31:03.175Z,94834.78
2022-12-09T15:32:38.872Z,94839.19
2022-12-09T15:34:15.838Z,94841.91
2022-12-09T15:35:50.582Z,94839.97
2022-12-09T15:37:24.720Z,94833.81
2022-12-09T15:38:58.087Z,94854.75
2022-12-09T15:40:30.179Z,94842.72
2022-12-09T15:42:12.746Z,94836.81
2022-12-09T15:43:44.360Z,94848.84
2022-12-09T15:45:17.053Z,94849.06
2022-12-09T15:46:49.542Z,94847.84
2022-12-09T15:48:21.767Z,94853.88
2022-12-09T15:49:57.551Z,94850.44
2022-12-09T15:51:29.182Z,94850.81
2022-12-09T15:53:02.850Z,94844.31
2022-12-09T15:54:35.622Z,94847.88
2022-12-09T15:56:09.011Z,94846.63
2022-12-09T15:57:40.653Z,94854.63
2022-12-09T15:59:27.919Z,94847.47
2022-12-09T16:00:59.511Z,94844.97
2022-12-09T16:02:32.386Z,94844.09
2022-12-09T16:04:04.856Z,94844.13
2022-12-09T16:05:42.091Z,94844.91
2022-12-09T16:07:15.874Z,94845.09
2022-12-09T16:08:47.533Z,94844.94
2022-12-09T16:10:19.300Z,94839.53
2022-12-09T16:11:52.174Z,94844.97
2022-12-09T16:13:23.882Z,94849.41
2022-12-09T16:14:55.504Z,94842.47
2022-12-09T16:16:33.084Z,94839.88
2022-12-09T16:18:04.973Z,94844.81
2022-12-09T16:19:38.159Z,94845.78
2022-12-09T16:21:25.127Z,94853.03
2022-12-09T16:22:56.763Z,94851.63
2022-12-09T16:24:50.864Z,94857.50
2022-12-09T16:26:24.167Z,94848.06
2022-12-09T16:27:57.818Z,94854.97
2022-12-09T16:29:31.104Z,94859.69
2022-12-09T16:31:04.523Z,94858.53
2022-12-09T16:32:39.944Z,94855.69
2022-12-09T16:34:19.799Z,94856.44
2022-12-09T16:35:56.992Z,94860.59
2022-12-09T16:37:36.124Z,94856.22
2022-12-09T16:39:33.417Z,94849.59
2022-12-09T16:41:09.389Z,94861.91
2022-12-09T16:42:41.247Z,94859.31
2022-12-09T16:44:18.180Z,94867.41
2022-12-09T16:45:50.196Z,94871.88
2022-12-09T16:47:24.963Z,94884.44
2022-12-09T16:49:04.409Z,94875.59
2022-12-09T16:50:37.239Z,94882.78
2022-12-09T16:52:11.665Z,94880.69
2022-12-09T16:53:45.943Z,94883.13
2022-12-09T16:55:19.356Z,94886.19
2022-12-09T16:56:51.954Z,94886.72
2022-12-09T16:58:23.635Z,94891.09
2022-12-09T16:59:55.299Z,94883.53
2022-12-09T17:01:29.563Z,94884.16
2022-12-09T17:03:02.053Z,94880.53
2022-12-09T17:04:33.703Z,94880.72
2022-12-09T17:06:05.663Z,94883.78
2022-12-09T17:07:37.367Z,94882.34
2022-12-09T17:09:14.661Z,94897.59
2022-12-09T17:10:46.281Z,94889.66
2022-12-09T17:12:18.053Z,94888.75
2022-12-09T17:13:52.594Z,94892.63
2022-12-09T17:15:24.354Z,94888.22
2022-12-09T17:16:56.082Z,94895.69
2022-12-09T17:18:28.451Z,94896.59
2022-12-09T17:20:00.119Z,94893.00
2022-12-09T17:21:32.064Z,94900.69
2022-12-09T17:23:03.722Z,94892.69
2022-12-09T17:24:36.795Z,94890.94
2022-12-09T17:26:09.369Z,94892.94
2022-12-09T17:27:41.220Z,94898.06
2022-12-09T17:29:12.834Z,94900.06
2022-12-09T17:30:44.466Z,94898.97
2022-12-09T17:32:16.135Z,94893.00
2022-12-09T17:33:50.783Z,94888.97
2022-12-09T17:35:22.423Z,94882.63
2022-12-09T17:36:55.185Z,94882.13
2022-12-09T17:38:28.280Z,94891.06
2022-12-09T17:40:03.634Z,94893.91
2022-12-09T17:41:35.682Z,94890.69
2022-12-09T17:43:07.440Z,94905.88
2022-12-09T17:44:39.357Z,94906.13
2022-12-09T17:46:11.553Z,94906.13
2022-12-09T17:47:43.237Z,94899.72
2022-12-09T17:49:16.121Z,94898.75
2022-12-09T17:50:47.807Z,94894.91
2022-12-09T17:52:20.561Z,94898.38
2022-12-09T17:53:52.167Z,94900.44
2022-12-09T17:55:27.029Z,94902.06
2022-12-09T17:56:58.687Z,94902.28
2022-12-09T17:58:32.908Z,94898.31
2022-12-09T18:00:06.965Z,94899.84
2022-12-09T18:01:40.489Z,94897.41
2022-12-09T18:03:17.891Z,94909.09
2022-12-09T18:04:53.960Z,94915.75
2022-12-09T18:06:25.683Z,94914.66
2022-12-09T18:07:57.361Z,94913.00
2022-12-09T18:09:54.160Z,94921.97
2022-12-09T18:11:27.592Z,94916.31
2022-12-09T18:12:59.364Z,94919.19
2022-12-09T18:14:31.246Z,94915.03
2022-12-09T18:16:08.034Z,94921.94
2022-12-09T18:17:39.700Z,94920.16
2022-12-09T18:19:15.382Z,94921.50
2022-12-09T18:20:47.784Z,94923.69
2022-12-09T18:22:19.423Z,94920.63
2022-12-09T18:23:51.105Z,94925.88
2022-12-09T18:25:22.733Z,94916.69
2022-12-09T18:26:55.927Z,94920.88
2022-12-09T18:28:27.715Z,94912.97
2022-12-09T18:29:59.547Z,94921.31
2022-12-09T18:31:31.329Z,94921.59
2022-12-09T18:33:03.075Z,94918.97
2022-12-09T18:34:35.672Z,94921.47